Home PIREPS Pireps

Flight BEL917

  • Submitted By: David Chenery
  • Departure Airport: Bruxelles National (EBBR)
  • Arrival Airport: Edinburgh Airport (EGPH)
  • Aircraft: A319-111 (OO-SSA)
  • Flight Time: 01.50
  • Date Submitted: 01/01/2018
  • Route: RTM TULIP MONIL BLUFA SITKO DOGGA NEW NEW29 NEW38 HAVEN
  • Status: Accepted
Flight Details
Gross Revenue:
(113 load / € 0.00 per unit
€ 0.00
Fuel Cost:
(4526 fuel used @ 0 / unit)
€ 0.00

Additional Log Information:

View Log

Aircraft Used in flight is A319-112 BA
08:52 Brakes are On
09:03 Brakes are Released
09:04 Landing Gear Up @ 141 Knots and 190 Feet
09:04 You Took off @ 141 Knots and Flaps at Position 2
Departure Weather
EBBR 011850Z 31011KT 9999 -RA BKN008 05/04 Q0998 TEMPO 2500 DZRA BKN004rn
09:04 You are Airborne and your Navigation Lights are off
09:15 Above FL100 you need to switch of the landing lights
09:33 Paused
09:42 Unpaused
10:46 Landing Gear Down @ 223 Knots and 2170 Feet
10:47 You Landed @ 151 Knots and with -250 Vertical Speed
Arrival Weather
EGPH 012050Z 24010KT CAVOK 02/01 Q0999rn
10:51 Brakes are On
10:51 Brussels Bel-Track1.0.1.2

Route Map

Corporate About Us Our Team Vacancies Information Fleet Route Network Rules and Regulations Operations Flight Schedules Event Center Tours Partners IVAO Vatsim Acars dev FSCB

fb Users Online No pilots online!
0 Pilot(s) and 142 Guest(s) Online
CMS by phpVMS - Design by Crazycreatives.com - Copyright © 2018 - Brussels Airlines Virtual